Twenty Six — 3FCU4 — position and weather

sailwx.info

Track history (hours):
 
Tides and Currents Weather Stations Pressure Air Temp Water Temp Dewpoint Dewpoint Depression Visibility Wind Speed Wind Dir Waves Ship Positions

Twenty Six

Last reported at 2017-Dec-12 12:59 UTC. Time now 2017-Dec-15 10:00 UTC.
Position N 46°34' E 032°25'.

; draft 2.9 m.

Type: Cargo ship. MMSI: 373419000.

Date/timePositionNaut miles runAvg speedWind from/ knotsBaromVisibWave heightAir tempDewpointWater temp
2017-Dec-12 12:59N 46°34' E 032°25'4 7.5
2017-Dec-12 12:25N 46°33' E 032°19'4 7.6
2017-Dec-12 11:57N 46°33' E 032°14'4 8.1
2017-Dec-12 11:28N 46°32' E 032°08'5 8.0
2017-Dec-12 10:54N 46°32' E 032°02'3 8.2
2017-Dec-12 10:31N 46°33' E 031°57'4 8.2
2017-Dec-12 09:58N 46°35' E 031°51'4 8.0
2017-Dec-12 09:29N 46°36' E 031°46'4 8.0
2017-Dec-12 09:00N 46°36' E 031°40'4 7.8
2017-Dec-12 08:30N 46°35' E 031°35'3 6.6
2017-Dec-12 08:00N 46°36' E 031°30'4 7.0
2017-Dec-12 07:31N 46°35' E 031°25'4 7.5
2017-Dec-12 07:00N 46°35' E 031°20'4 8.2
2017-Dec-12 06:30N 46°35' E 031°14'4 8.3
2017-Dec-12 06:00N 46°35' E 031°07'4 8.3
2017-Dec-12 05:30N 46°34' E 031°02'4 7.6
2017-Dec-12 04:57N 46°31' E 030°57'1 1.7
2017-Dec-12 04:30N 46°31' E 030°58'1 1.6
2017-Dec-12 03:57N 46°30' E 030°58'1 1.8
2017-Dec-12 03:30N 46°30' E 030°57'2 4.5
2017-Dec-12 03:00N 46°27' E 030°56'2 3.4
2017-Dec-12 02:30N 46°29' E 030°55'2 3.5
2017-Dec-12 01:54N 46°31' E 030°54'2 5.0
2017-Dec-12 01:30N 46°31' E 030°51'3 5.3
2017-Dec-12 01:00N 46°31' E 030°48'2 3.2
2017-Dec-12 00:19N 46°29' E 030°45'0 0.0
2017-Dec-11 23:58N 46°29' E 030°45'0 0.0
2017-Dec-11 23:28N 46°29' E 030°45'0 0.0
2017-Dec-11 22:58N 46°29' E 030°45'0 0.0
2017-Dec-11 22:28N 46°29' E 030°45'0 0.0
2017-Dec-11 21:55N 46°29' E 030°45'0 0.0
2017-Dec-11 21:25N 46°29' E 030°45'0 0.0
2017-Dec-11 20:58N 46°29' E 030°45'0 0.0
2017-Dec-11 20:19N 46°29' E 030°45'0 0.0
2017-Dec-11 19:49N 46°29' E 030°45'0 0.0
2017-Dec-11 19:28N 46°29' E 030°45'0 0.0
2017-Dec-11 18:28N 46°29' E 030°45'0 0.0
2017-Dec-11 17:58N 46°29' E 030°45'0 0.0
2017-Dec-11 17:22N 46°29' E 030°45'0 0.0
2017-Dec-11 16:58N 46°29' E 030°45'0 0.0
2017-Dec-11 16:25N 46°29' E 030°45'0 0.0
2017-Dec-11 15:58N 46°29' E 030°45'0 0.0
2017-Dec-11 15:22N 46°29' E 030°45'0 0.0
2017-Dec-11 14:58N 46°29' E 030°45'0 0.0
2017-Dec-11 14:25N 46°29' E 030°45'0 0.0
2017-Dec-11 13:58N 46°29' E 030°45'0 0.0
2017-Dec-11 13:07N 46°29' E 030°45'0 0.0
2017-Dec-11 12:52N 46°29' E 030°45'0 0.0
2017-Dec-11 12:22N 46°29' E 030°45'0 0.0
2017-Dec-11 11:58N 46°29' E 030°45'0 0.0
2017-Dec-11 11:22N 46°29' E 030°45'0 0.0
2017-Dec-11 10:52N 46°29' E 030°45'0 0.0
2017-Dec-11 10:28N 46°29' E 030°45'0 0.0
2017-Dec-11 09:55N 46°29' E 030°45'0 0.0
2017-Dec-11 09:28N 46°29' E 030°45'0 0.0
2017-Dec-11 08:55N 46°29' E 030°45'0 0.0
2017-Dec-11 07:55N 46°29' E 030°45'0 0.0
2017-Dec-11 07:25N 46°29' E 030°45'0 0.0
2017-Dec-11 06:28N 46°29' E 030°45'0 0.0
2017-Dec-11 05:55N 46°29' E 030°45'0 0.0
2017-Dec-11 05:25N 46°29' E 030°45'0 0.0
2017-Dec-11 04:58N 46°29' E 030°45'0 0.0
2017-Dec-11 04:28N 46°29' E 030°45'0 0.0
2017-Dec-11 03:58N 46°29' E 030°45'0 0.0
2017-Dec-11 03:28N 46°29' E 030°45'0 0.0
2017-Dec-11 02:58N 46°29' E 030°45'0 0.0
2017-Dec-11 02:19N 46°29' E 030°45'0 0.0
2017-Dec-11 01:58N 46°29' E 030°45'0 0.0
2017-Dec-11 00:55N 46°29' E 030°45'0 0.0
2017-Dec-11 00:28N 46°29' E 030°45'0 0.0
2017-Dec-10 23:58N 46°29' E 030°45'0 0.0
2017-Dec-10 23:22N 46°29' E 030°45'0 0.0
2017-Dec-10 22:55N 46°29' E 030°45'0 0.0
2017-Dec-10 22:19N 46°29' E 030°45'0 0.0
2017-Dec-10 21:34N 46°29' E 030°45'0 0.0
2017-Dec-10 21:10N 46°29' E 030°45'0 0.1
2017-Dec-10 20:58N 46°29' E 030°45'0 0.0
2017-Dec-10 20:25N 46°29' E 030°45'0 0.0
2017-Dec-10 19:55N 46°29' E 030°45'0 0.0
2017-Dec-10 19:25N 46°29' E 030°45'0 0.0
2017-Dec-10 18:34N 46°29' E 030°45'0 0.1
2017-Dec-10 18:28N 46°29' E 030°45'0 0.0
2017-Dec-10 17:52N 46°29' E 030°45'0 0.0
2017-Dec-10 17:19N 46°29' E 030°45'0 0.0
2017-Dec-10 16:49N 46°29' E 030°45'0 0.0
2017-Dec-10 16:28N 46°29' E 030°45'0 0.0
2017-Dec-10 15:58N 46°29' E 030°45'0 0.0
2017-Dec-10 15:25N 46°29' E 030°45'0 0.0
2017-Dec-10 14:55N 46°29' E 030°45'0 0.0
2017-Dec-10 14:28N 46°29' E 030°45'0 0.0
2017-Dec-10 13:46N 46°29' E 030°45'0 0.0
2017-Dec-10 13:19N 46°29' E 030°45'0 0.0
2017-Dec-10 12:43N 46°29' E 030°45'0 0.0
2017-Dec-10 12:25N 46°29' E 030°45'0 0.0
2017-Dec-10 11:58N 46°29' E 030°45'0 0.0
2017-Dec-10 11:28N 46°29' E 030°45'0 0.0
2017-Dec-10 10:55N 46°29' E 030°45'0 0.0
2017-Dec-10 10:13N 46°29' E 030°45'0 0.0
2017-Dec-10 09:52N 46°29' E 030°45'0 0.0
2017-Dec-10 09:25N 46°29' E 030°45'0 0.0
2017-Dec-10 08:55N 46°29' E 030°45'0 0.0
2017-Dec-10 08:25N 46°29' E 030°45'0 0.0
2017-Dec-10 07:58N 46°29' E 030°45'0 0.0
2017-Dec-10 07:19N 46°29' E 030°45'0 0.0
2017-Dec-10 06:49N 46°29' E 030°45'0 0.0
2017-Dec-10 06:28N 46°29' E 030°45'0 0.0
2017-Dec-10 05:52N 46°29' E 030°45'0 0.0
2017-Dec-10 05:25N 46°29' E 030°45'0 0.2
2017-Dec-10 04:49N 46°29' E 030°45'0 0.1
2017-Dec-10 04:22N 46°29' E 030°45'0 0.0
2017-Dec-10 03:46N 46°29' E 030°45'0 0.0
2017-Dec-10 03:28N 46°29' E 030°45'0 0.0
2017-Dec-10 02:55N 46°29' E 030°45'0 0.0
2017-Dec-10 02:25N 46°29' E 030°45'0 0.0
2017-Dec-10 01:58N 46°29' E 030°45'0 0.0
2017-Dec-10 01:28N 46°29' E 030°45'0 0.0
2017-Dec-10 00:52N 46°29' E 030°45'0 0.0
2017-Dec-10 00:28N 46°29' E 030°45'0 0.0
2017-Dec-09 23:46N 46°29' E 030°45'0 0.0
2017-Dec-09 23:28N 46°29' E 030°45'0 0.0
2017-Dec-09 22:58N 46°29' E 030°45'0 0.0
2017-Dec-09 22:25N 46°29' E 030°45'0 0.0
2017-Dec-09 21:52N 46°29' E 030°45'0 0.0
2017-Dec-09 21:25N 46°29' E 030°45'0 0.0
2017-Dec-09 20:43N 46°29' E 030°45'0 0.0
2017-Dec-09 20:28N 46°29' E 030°45'0 0.0
2017-Dec-09 19:55N 46°29' E 030°45'0 0.0
2017-Dec-09 19:22N 46°29' E 030°45'0 0.0
2017-Dec-09 18:58N 46°29' E 030°45'0 0.0
2017-Dec-09 18:19N 46°29' E 030°45'0 0.0
2017-Dec-09 17:49N 46°29' E 030°45'0 0.0
2017-Dec-09 17:28N 46°29' E 030°45'0 0.0
2017-Dec-09 16:52N 46°29' E 030°45'0 0.0
2017-Dec-09 16:25N 46°29' E 030°45'0 0.0
2017-Dec-09 15:55N 46°29' E 030°45'0 0.0
2017-Dec-09 15:25N 46°29' E 030°45'0 0.0
2017-Dec-09 14:34N 46°29' E 030°45'0 0.0
2017-Dec-09 14:25N 46°29' E 030°45'0 0.0
2017-Dec-09 13:58N 46°29' E 030°45'0 0.0
2017-Dec-09 13:28N 46°29' E 030°45'0 0.0
2017-Dec-09 12:58N 46°29' E 030°45'0 0.0
2017-Dec-09 11:58N 46°29' E 030°45'0 0.0
2017-Dec-09 11:25N 46°29' E 030°45'0 0.0
2017-Dec-09 10:55N 46°29' E 030°45'0 0.0
2017-Dec-09 10:19N 46°29' E 030°45'0 0.0
2017-Dec-09 09:58N 46°29' E 030°45'0 0.0
2017-Dec-09 09:28N 46°29' E 030°45'0 0.0
2017-Dec-09 08:55N 46°29' E 030°45'0 0.0
2017-Dec-09 08:25N 46°29' E 030°45'0 0.0
2017-Dec-09 07:55N 46°29' E 030°45'0 0.0
2017-Dec-09 07:19N 46°29' E 030°45'0 0.0
2017-Dec-09 06:58N 46°29' E 030°45'0 0.0
2017-Dec-09 06:04N 46°29' E 030°45'0 0.0
2017-Dec-09 05:43N 46°29' E 030°45'0 0.0
2017-Dec-09 05:19N 46°29' E 030°45'0 0.0
2017-Dec-09 04:55N 46°29' E 030°45'0 0.0
2017-Dec-09 04:22N 46°29' E 030°45'0 0.0
2017-Dec-09 03:49N 46°29' E 030°45'0 0.0
2017-Dec-09 03:16N 46°29' E 030°45'0 0.0
2017-Dec-09 02:52N 46°29' E 030°45'0 0.0
2017-Dec-09 02:25N 46°29' E 030°45'0 0.0
2017-Dec-09 01:55N 46°29' E 030°45'0 0.0
2017-Dec-09 01:25N 46°29' E 030°45'0 0.0
2017-Dec-09 00:46N 46°29' E 030°45'0 0.0
2017-Dec-09 00:28N 46°29' E 030°45'0 0.0
2017-Dec-08 23:49N 46°29' E 030°45'0 0.0
2017-Dec-08 23:28N 46°29' E 030°45'0 0.0
2017-Dec-08 22:58N 46°29' E 030°45'0 0.0
2017-Dec-08 22:22N 46°29' E 030°45'0 0.0
2017-Dec-08 21:46N 46°29' E 030°45'0 0.0
2017-Dec-08 21:28N 46°29' E 030°45'0 0.0
2017-Dec-08 20:31N 46°29' E 030°45'0 0.0
2017-Dec-08 20:28N 46°29' E 030°45'0 0.0
2017-Dec-08 19:58N 46°29' E 030°45'0 0.0
2017-Dec-08 19:13N 46°29' E 030°45'0 0.0
2017-Dec-08 18:49N 46°29' E 030°45'0 0.0
2017-Dec-08 18:10N 46°29' E 030°45'0 0.0
2017-Dec-08 17:47N 46°29' E 030°45'0 0.0
2017-Dec-08 15:47N 46°29' E 030°45'0 0.0
2017-Dec-08 15:14N 46°29' E 030°45'0 0.0
2017-Dec-08 14:56N 46°29' E 030°45'0 0.0
2017-Dec-08 14:29N 46°29' E 030°45'0 0.0
2017-Dec-08 13:38N 46°29' E 030°45'0 0.0
2017-Dec-08 13:26N 46°29' E 030°45'0 0.0
2017-Dec-08 12:44N 46°29' E 030°45'0 0.0
2017-Dec-08 12:14N 46°29' E 030°45'0 0.0
2017-Dec-08 11:56N 46°29' E 030°45'0 0.0
2017-Dec-08 11:20N 46°29' E 030°45'0 0.0
2017-Dec-08 10:56N 46°29' E 030°45'0 0.0
2017-Dec-08 10:29N 46°29' E 030°45'0 0.0
2017-Dec-08 09:50N 46°29' E 030°45'0 0.0
2017-Dec-08 09:23N 46°29' E 030°45'0 0.0
2017-Dec-08 08:56N 46°29' E 030°45'0 0.0
2017-Dec-08 08:11N 46°29' E 030°45'0 0.0
2017-Dec-08 07:47N 46°29' E 030°45'0 0.0
2017-Dec-08 07:26N 46°29' E 030°45'0 0.0
2017-Dec-08 06:59N 46°29' E 030°45'0 0.0
2017-Dec-08 06:29N 46°29' E 030°45'0 0.0
2017-Dec-08 05:41N 46°29' E 030°45'0 0.0
2017-Dec-08 05:17N 46°29' E 030°45'0 0.0
2017-Dec-08 04:50N 46°29' E 030°45'0 0.0
2017-Dec-08 04:29N 46°29' E 030°45'0 0.0
2017-Dec-08 03:59N 46°29' E 030°45'0 0.0
2017-Dec-08 03:23N 46°29' E 030°45'0 0.0
2017-Dec-08 02:50N 46°29' E 030°45'0 0.0
2017-Dec-08 02:26N 46°29' E 030°45'0 0.0
2017-Dec-08 01:56N 46°29' E 030°45'0 0.0
2017-Dec-08 01:26N 46°29' E 030°45'0 0.0
2017-Dec-08 00:56N 46°29' E 030°45'0 0.0
2017-Dec-08 00:20N 46°29' E 030°45'0 0.0
2017-Dec-07 23:56N 46°29' E 030°45'0 0.0
2017-Dec-07 23:23N 46°29' E 030°45'0 0.0
2017-Dec-07 22:59N 46°29' E 030°45'0 0.0
2017-Dec-07 22:26N 46°29' E 030°45'0 0.0
2017-Dec-07 21:59N 46°29' E 030°45'0 0.0
2017-Dec-07 21:29N 46°29' E 030°45'0 0.0
2017-Dec-07 20:11N 46°29' E 030°45'0 0.0
2017-Dec-07 19:56N 46°29' E 030°45'0 0.0
2017-Dec-07 19:26N 46°29' E 030°45'0 0.0
2017-Dec-07 18:53N 46°29' E 030°45'0 0.0
2017-Dec-07 18:14N 46°29' E 030°45'0 0.0
2017-Dec-07 17:56N 46°29' E 030°45'0 0.0
2017-Dec-07 17:26N 46°29' E 030°45'0 0.0
2017-Dec-07 16:56N 46°29' E 030°45'0 0.0
2017-Dec-07 16:26N 46°29' E 030°45'0 0.0
2017-Dec-07 15:59N 46°29' E 030°45'0 0.0
2017-Dec-07 15:26N 46°29' E 030°45'0 0.0
2017-Dec-07 14:59N 46°29' E 030°45'0 0.0
2017-Dec-07 14:29N 46°29' E 030°45'0 0.0
2017-Dec-07 13:53N 46°29' E 030°45'0 0.0
2017-Dec-07 13:26N 46°29' E 030°45'0 0.0
2017-Dec-07 13:00N 46°29' E 030°45'1 2.3
2017-Dec-07 12:30N 46°30' E 030°46'3 5.3
2017-Dec-07 12:00N 46°28' E 030°49'3 6.5
2017-Dec-07 11:30N 46°25' E 030°48'  
Track history (hours):
 
Tides and Currents Weather Stations Pressure Air Temp Water Temp Dewpoint Dewpoint Depression Visibility Wind Speed Wind Dir Waves Ship Positions

Twenty Six

Last reported at 2017-Dec-12 12:59 UTC. Time now 2017-Dec-15 10:00 UTC.
Position N 46°34' E 032°25'.

; draft 2.9 m.

Type: Cargo ship. MMSI: 373419000.

Date/timePositionNaut miles runAvg speedWind from/ knotsBaromVisibWave heightAir tempDewpointWater temp
2017-Dec-12 12:59N 46°34' E 032°25'4 7.5
2017-Dec-12 12:25N 46°33' E 032°19'4 7.6
2017-Dec-12 11:57N 46°33' E 032°14'4 8.1
2017-Dec-12 11:28N 46°32' E 032°08'5 8.0
2017-Dec-12 10:54N 46°32' E 032°02'3 8.2
2017-Dec-12 10:31N 46°33' E 031°57'4 8.2
2017-Dec-12 09:58N 46°35' E 031°51'4 8.0
2017-Dec-12 09:29N 46°36' E 031°46'4 8.0
2017-Dec-12 09:00N 46°36' E 031°40'4 7.8
2017-Dec-12 08:30N 46°35' E 031°35'3 6.6
2017-Dec-12 08:00N 46°36' E 031°30'4 7.0
2017-Dec-12 07:31N 46°35' E 031°25'4 7.5
2017-Dec-12 07:00N 46°35' E 031°20'4 8.2
2017-Dec-12 06:30N 46°35' E 031°14'4 8.3
2017-Dec-12 06:00N 46°35' E 031°07'4 8.3
2017-Dec-12 05:30N 46°34' E 031°02'4 7.6
2017-Dec-12 04:57N 46°31' E 030°57'1 1.7
2017-Dec-12 04:30N 46°31' E 030°58'1 1.6
2017-Dec-12 03:57N 46°30' E 030°58'1 1.8
2017-Dec-12 03:30N 46°30' E 030°57'2 4.5
2017-Dec-12 03:00N 46°27' E 030°56'2 3.4
2017-Dec-12 02:30N 46°29' E 030°55'2 3.5
2017-Dec-12 01:54N 46°31' E 030°54'2 5.0
2017-Dec-12 01:30N 46°31' E 030°51'3 5.3
2017-Dec-12 01:00N 46°31' E 030°48'2 3.2
2017-Dec-12 00:19N 46°29' E 030°45'0 0.0
2017-Dec-11 23:58N 46°29' E 030°45'0 0.0
2017-Dec-11 23:28N 46°29' E 030°45'0 0.0
2017-Dec-11 22:58N 46°29' E 030°45'0 0.0
2017-Dec-11 22:28N 46°29' E 030°45'0 0.0
2017-Dec-11 21:55N 46°29' E 030°45'0 0.0
2017-Dec-11 21:25N 46°29' E 030°45'0 0.0
2017-Dec-11 20:58N 46°29' E 030°45'0 0.0
2017-Dec-11 20:19N 46°29' E 030°45'0 0.0
2017-Dec-11 19:49N 46°29' E 030°45'0 0.0
2017-Dec-11 19:28N 46°29' E 030°45'0 0.0
2017-Dec-11 18:28N 46°29' E 030°45'0 0.0
2017-Dec-11 17:58N 46°29' E 030°45'0 0.0
2017-Dec-11 17:22N 46°29' E 030°45'0 0.0
2017-Dec-11 16:58N 46°29' E 030°45'0 0.0
2017-Dec-11 16:25N 46°29' E 030°45'0 0.0
2017-Dec-11 15:58N 46°29' E 030°45'0 0.0
2017-Dec-11 15:22N 46°29' E 030°45'0 0.0
2017-Dec-11 14:58N 46°29' E 030°45'0 0.0
2017-Dec-11 14:25N 46°29' E 030°45'0 0.0
2017-Dec-11 13:58N 46°29' E 030°45'0 0.0
2017-Dec-11 13:07N 46°29' E 030°45'0 0.0
2017-Dec-11 12:52N 46°29' E 030°45'0 0.0
2017-Dec-11 12:22N 46°29' E 030°45'0 0.0
2017-Dec-11 11:58N 46°29' E 030°45'0 0.0
2017-Dec-11 11:22N 46°29' E 030°45'0 0.0
2017-Dec-11 10:52N 46°29' E 030°45'0 0.0
2017-Dec-11 10:28N 46°29' E 030°45'0 0.0
2017-Dec-11 09:55N 46°29' E 030°45'0 0.0
2017-Dec-11 09:28N 46°29' E 030°45'0 0.0
2017-Dec-11 08:55N 46°29' E 030°45'0 0.0
2017-Dec-11 07:55N 46°29' E 030°45'0 0.0
2017-Dec-11 07:25N 46°29' E 030°45'0 0.0
2017-Dec-11 06:28N 46°29' E 030°45'0 0.0
2017-Dec-11 05:55N 46°29' E 030°45'0 0.0
2017-Dec-11 05:25N 46°29' E 030°45'0 0.0
2017-Dec-11 04:58N 46°29' E 030°45'0 0.0
2017-Dec-11 04:28N 46°29' E 030°45'0 0.0
2017-Dec-11 03:58N 46°29' E 030°45'0 0.0
2017-Dec-11 03:28N 46°29' E 030°45'0 0.0
2017-Dec-11 02:58N 46°29' E 030°45'0 0.0
2017-Dec-11 02:19N 46°29' E 030°45'0 0.0
2017-Dec-11 01:58N 46°29' E 030°45'0 0.0
2017-Dec-11 00:55N 46°29' E 030°45'0 0.0
2017-Dec-11 00:28N 46°29' E 030°45'0 0.0
2017-Dec-10 23:58N 46°29' E 030°45'0 0.0
2017-Dec-10 23:22N 46°29' E 030°45'0 0.0
2017-Dec-10 22:55N 46°29' E 030°45'0 0.0
2017-Dec-10 22:19N 46°29' E 030°45'0 0.0
2017-Dec-10 21:34N 46°29' E 030°45'0 0.0
2017-Dec-10 21:10N 46°29' E 030°45'0 0.1
2017-Dec-10 20:58N 46°29' E 030°45'0 0.0
2017-Dec-10 20:25N 46°29' E 030°45'0 0.0
2017-Dec-10 19:55N 46°29' E 030°45'0 0.0
2017-Dec-10 19:25N 46°29' E 030°45'0 0.0
2017-Dec-10 18:34N 46°29' E 030°45'0 0.1
2017-Dec-10 18:28N 46°29' E 030°45'0 0.0
2017-Dec-10 17:52N 46°29' E 030°45'0 0.0
2017-Dec-10 17:19N 46°29' E 030°45'0 0.0
2017-Dec-10 16:49N 46°29' E 030°45'0 0.0
2017-Dec-10 16:28N 46°29' E 030°45'0 0.0
2017-Dec-10 15:58N 46°29' E 030°45'0 0.0
2017-Dec-10 15:25N 46°29' E 030°45'0 0.0
2017-Dec-10 14:55N 46°29' E 030°45'0 0.0
2017-Dec-10 14:28N 46°29' E 030°45'0 0.0
2017-Dec-10 13:46N 46°29' E 030°45'0 0.0
2017-Dec-10 13:19N 46°29' E 030°45'0 0.0
2017-Dec-10 12:43N 46°29' E 030°45'0 0.0
2017-Dec-10 12:25N 46°29' E 030°45'0 0.0
2017-Dec-10 11:58N 46°29' E 030°45'0 0.0
2017-Dec-10 11:28N 46°29' E 030°45'0 0.0
2017-Dec-10 10:55N 46°29' E 030°45'0 0.0
2017-Dec-10 10:13N 46°29' E 030°45'0 0.0
2017-Dec-10 09:52N 46°29' E 030°45'0 0.0
2017-Dec-10 09:25N 46°29' E 030°45'0 0.0
2017-Dec-10 08:55N 46°29' E 030°45'0 0.0
2017-Dec-10 08:25N 46°29' E 030°45'0 0.0
2017-Dec-10 07:58N 46°29' E 030°45'0 0.0
2017-Dec-10 07:19N 46°29' E 030°45'0 0.0
2017-Dec-10 06:49N 46°29' E 030°45'0 0.0
2017-Dec-10 06:28N 46°29' E 030°45'0 0.0
2017-Dec-10 05:52N 46°29' E 030°45'0 0.0
2017-Dec-10 05:25N 46°29' E 030°45'0 0.2
2017-Dec-10 04:49N 46°29' E 030°45'0 0.1
2017-Dec-10 04:22N 46°29' E 030°45'0 0.0
2017-Dec-10 03:46N 46°29' E 030°45'0 0.0
2017-Dec-10 03:28N 46°29' E 030°45'0 0.0
2017-Dec-10 02:55N 46°29' E 030°45'0 0.0
2017-Dec-10 02:25N 46°29' E 030°45'0 0.0
2017-Dec-10 01:58N 46°29' E 030°45'0 0.0
2017-Dec-10 01:28N 46°29' E 030°45'0 0.0
2017-Dec-10 00:52N 46°29' E 030°45'0 0.0
2017-Dec-10 00:28N 46°29' E 030°45'0 0.0
2017-Dec-09 23:46N 46°29' E 030°45'0 0.0
2017-Dec-09 23:28N 46°29' E 030°45'0 0.0
2017-Dec-09 22:58N 46°29' E 030°45'0 0.0
2017-Dec-09 22:25N 46°29' E 030°45'0 0.0
2017-Dec-09 21:52N 46°29' E 030°45'0 0.0
2017-Dec-09 21:25N 46°29' E 030°45'0 0.0
2017-Dec-09 20:43N 46°29' E 030°45'0 0.0
2017-Dec-09 20:28N 46°29' E 030°45'0 0.0
2017-Dec-09 19:55N 46°29' E 030°45'0 0.0
2017-Dec-09 19:22N 46°29' E 030°45'0 0.0
2017-Dec-09 18:58N 46°29' E 030°45'0 0.0
2017-Dec-09 18:19N 46°29' E 030°45'0 0.0
2017-Dec-09 17:49N 46°29' E 030°45'0 0.0
2017-Dec-09 17:28N 46°29' E 030°45'0 0.0
2017-Dec-09 16:52N 46°29' E 030°45'0 0.0
2017-Dec-09 16:25N 46°29' E 030°45'0 0.0
2017-Dec-09 15:55N 46°29' E 030°45'0 0.0
2017-Dec-09 15:25N 46°29' E 030°45'0 0.0
2017-Dec-09 14:34N 46°29' E 030°45'0 0.0
2017-Dec-09 14:25N 46°29' E 030°45'0 0.0
2017-Dec-09 13:58N 46°29' E 030°45'0 0.0
2017-Dec-09 13:28N 46°29' E 030°45'0 0.0
2017-Dec-09 12:58N 46°29' E 030°45'0 0.0
2017-Dec-09 11:58N 46°29' E 030°45'0 0.0
2017-Dec-09 11:25N 46°29' E 030°45'0 0.0
2017-Dec-09 10:55N 46°29' E 030°45'0 0.0
2017-Dec-09 10:19N 46°29' E 030°45'0 0.0
2017-Dec-09 09:58N 46°29' E 030°45'0 0.0
2017-Dec-09 09:28N 46°29' E 030°45'0 0.0
2017-Dec-09 08:55N 46°29' E 030°45'0 0.0
2017-Dec-09 08:25N 46°29' E 030°45'0 0.0
2017-Dec-09 07:55N 46°29' E 030°45'0 0.0
2017-Dec-09 07:19N 46°29' E 030°45'0 0.0
2017-Dec-09 06:58N 46°29' E 030°45'0 0.0
2017-Dec-09 06:04N 46°29' E 030°45'0 0.0
2017-Dec-09 05:43N 46°29' E 030°45'0 0.0
2017-Dec-09 05:19N 46°29' E 030°45'0 0.0
2017-Dec-09 04:55N 46°29' E 030°45'0 0.0
2017-Dec-09 04:22N 46°29' E 030°45'0 0.0
2017-Dec-09 03:49N 46°29' E 030°45'0 0.0
2017-Dec-09 03:16N 46°29' E 030°45'0 0.0
2017-Dec-09 02:52N 46°29' E 030°45'0 0.0
2017-Dec-09 02:25N 46°29' E 030°45'0 0.0
2017-Dec-09 01:55N 46°29' E 030°45'0 0.0
2017-Dec-09 01:25N 46°29' E 030°45'0 0.0
2017-Dec-09 00:46N 46°29' E 030°45'0 0.0
2017-Dec-09 00:28N 46°29' E 030°45'0 0.0
2017-Dec-08 23:49N 46°29' E 030°45'0 0.0
2017-Dec-08 23:28N 46°29' E 030°45'0 0.0
2017-Dec-08 22:58N 46°29' E 030°45'0 0.0
2017-Dec-08 22:22N 46°29' E 030°45'0 0.0
2017-Dec-08 21:46N 46°29' E 030°45'0 0.0
2017-Dec-08 21:28N 46°29' E 030°45'0 0.0
2017-Dec-08 20:31N 46°29' E 030°45'0 0.0
2017-Dec-08 20:28N 46°29' E 030°45'0 0.0
2017-Dec-08 19:58N 46°29' E 030°45'0 0.0
2017-Dec-08 19:13N 46°29' E 030°45'0 0.0
2017-Dec-08 18:49N 46°29' E 030°45'0 0.0
2017-Dec-08 18:10N 46°29' E 030°45'0 0.0
2017-Dec-08 17:47N 46°29' E 030°45'0 0.0
2017-Dec-08 15:47N 46°29' E 030°45'0 0.0
2017-Dec-08 15:14N 46°29' E 030°45'0 0.0
2017-Dec-08 14:56N 46°29' E 030°45'0 0.0
2017-Dec-08 14:29N 46°29' E 030°45'0 0.0
2017-Dec-08 13:38N 46°29' E 030°45'0 0.0
2017-Dec-08 13:26N 46°29' E 030°45'0 0.0
2017-Dec-08 12:44N 46°29' E 030°45'0 0.0
2017-Dec-08 12:14N 46°29' E 030°45'0 0.0
2017-Dec-08 11:56N 46°29' E 030°45'0 0.0
2017-Dec-08 11:20N 46°29' E 030°45'0 0.0
2017-Dec-08 10:56N 46°29' E 030°45'0 0.0
2017-Dec-08 10:29N 46°29' E 030°45'0 0.0
2017-Dec-08 09:50N 46°29' E 030°45'0 0.0
2017-Dec-08 09:23N 46°29' E 030°45'0 0.0
2017-Dec-08 08:56N 46°29' E 030°45'0 0.0
2017-Dec-08 08:11N 46°29' E 030°45'0 0.0
2017-Dec-08 07:47N 46°29' E 030°45'0 0.0
2017-Dec-08 07:26N 46°29' E 030°45'0 0.0
2017-Dec-08 06:59N 46°29' E 030°45'0 0.0
2017-Dec-08 06:29N 46°29' E 030°45'0 0.0
2017-Dec-08 05:41N 46°29' E 030°45'0 0.0
2017-Dec-08 05:17N 46°29' E 030°45'0 0.0
2017-Dec-08 04:50N 46°29' E 030°45'0 0.0
2017-Dec-08 04:29N 46°29' E 030°45'0 0.0
2017-Dec-08 03:59N 46°29' E 030°45'0 0.0
2017-Dec-08 03:23N 46°29' E 030°45'0 0.0
2017-Dec-08 02:50N 46°29' E 030°45'0 0.0
2017-Dec-08 02:26N 46°29' E 030°45'0 0.0
2017-Dec-08 01:56N 46°29' E 030°45'0 0.0
2017-Dec-08 01:26N 46°29' E 030°45'0 0.0
2017-Dec-08 00:56N 46°29' E 030°45'0 0.0
2017-Dec-08 00:20N 46°29' E 030°45'0 0.0
2017-Dec-07 23:56N 46°29' E 030°45'0 0.0
2017-Dec-07 23:23N 46°29' E 030°45'0 0.0
2017-Dec-07 22:59N 46°29' E 030°45'0 0.0
2017-Dec-07 22:26N 46°29' E 030°45'0 0.0
2017-Dec-07 21:59N 46°29' E 030°45'0 0.0
2017-Dec-07 21:29N 46°29' E 030°45'0 0.0
2017-Dec-07 20:11N 46°29' E 030°45'0 0.0
2017-Dec-07 19:56N 46°29' E 030°45'0 0.0
2017-Dec-07 19:26N 46°29' E 030°45'0 0.0
2017-Dec-07 18:53N 46°29' E 030°45'0 0.0
2017-Dec-07 18:14N 46°29' E 030°45'0 0.0
2017-Dec-07 17:56N 46°29' E 030°45'0 0.0
2017-Dec-07 17:26N 46°29' E 030°45'0 0.0
2017-Dec-07 16:56N 46°29' E 030°45'0 0.0
2017-Dec-07 16:26N 46°29' E 030°45'0 0.0
2017-Dec-07 15:59N 46°29' E 030°45'0 0.0
2017-Dec-07 15:26N 46°29' E 030°45'0 0.0
2017-Dec-07 14:59N 46°29' E 030°45'0 0.0
2017-Dec-07 14:29N 46°29' E 030°45'0 0.0
2017-Dec-07 13:53N 46°29' E 030°45'0 0.0
2017-Dec-07 13:26N 46°29' E 030°45'0 0.0
2017-Dec-07 13:00N 46°29' E 030°45'1 2.3
2017-Dec-07 12:30N 46°30' E 030°46'3 5.3
2017-Dec-07 12:00N 46°28' E 030°49'3 6.5
2017-Dec-07 11:30N 46°25' E 030°48'  

Dump ship's entire track history